createdAt,value
2018-04-24T00:00:42.684Z,85.73
2018-04-24T00:02:35.412Z,84.49
2018-04-24T00:03:35.303Z,82.97
2018-04-24T00:05:28.134Z,81.73
2018-04-24T00:06:28.037Z,83.83
2018-04-24T00:08:20.797Z,85.45
2018-04-24T00:09:20.681Z,86.49
2018-04-24T00:11:13.428Z,87.26
2018-04-24T00:12:13.372Z,84.97
2018-04-24T00:14:06.102Z,86.49
2018-04-24T00:15:05.981Z,84.97
2018-04-24T00:16:59.254Z,80.68
2018-04-24T00:17:59.147Z,83.83
2018-04-24T00:19:52.423Z,83.92
2018-04-24T00:20:52.299Z,83.44
2018-04-24T00:22:45.180Z,86.88
2018-04-24T00:23:45.078Z,87.45
2018-04-24T00:25:37.813Z,86.98
2018-04-24T00:26:37.702Z,86.21
2018-04-24T00:28:30.587Z,85.16
2018-04-24T00:29:30.442Z,88.12
2018-04-24T00:31:23.189Z,88.50
2018-04-24T00:32:23.093Z,88.26
2018-04-24T00:34:16.011Z,86.82
2018-04-24T00:35:15.870Z,88.31
2018-04-24T00:37:08.590Z,87.35
2018-04-24T00:38:08.492Z,86.16
2018-04-24T00:40:01.359Z,82.97
2018-04-24T00:41:01.237Z,85.73
2018-04-24T00:42:53.982Z,89.36
2018-04-24T00:43:53.890Z,88.02
2018-04-24T00:45:46.789Z,88.78
2018-04-24T00:46:46.538Z,88.02
2018-04-24T00:48:39.278Z,87.26
2018-04-24T00:49:39.185Z,88.98
2018-04-24T00:51:32.040Z,86.98
2018-04-24T00:52:31.930Z,88.02
2018-04-24T00:54:24.668Z,85.45
2018-04-24T00:55:24.577Z,85.16
2018-04-24T00:57:17.335Z,80.68
2018-04-24T00:58:17.226Z,80.30
2018-04-24T01:00:10.118Z,78.67
2018-04-24T01:01:09.897Z,78.49
2018-04-24T01:03:02.642Z,76.44
2018-04-24T01:04:02.525Z,74.73
2018-04-24T01:05:55.283Z,74.06
2018-04-24T01:06:55.169Z,74.25
2018-04-24T01:08:47.911Z,72.92
2018-04-24T01:09:47.821Z,73.49
2018-04-24T01:11:40.578Z,79.21
2018-04-24T01:12:40.475Z,79.88
2018-04-24T01:14:33.215Z,76.77
2018-04-24T01:15:33.133Z,74.73
2018-04-24T01:17:25.906Z,75.49
2018-04-24T01:18:25.774Z,72.44
2018-04-24T01:20:18.500Z,71.77
2018-04-24T01:21:18.401Z,71.77
2018-04-24T01:23:11.185Z,72.63
2018-04-24T01:24:11.051Z,72.53
2018-04-24T01:26:03.890Z,73.49
2018-04-24T01:27:03.796Z,71.68
2018-04-24T01:28:56.562Z,70.06
2018-04-24T01:29:56.447Z,70.72
2018-04-24T01:31:49.192Z,77.11
2018-04-24T01:32:49.105Z,79.21
2018-04-24T01:34:41.952Z,77.40
2018-04-24T01:35:41.837Z,78.16
2018-04-24T01:37:34.614Z,74.54
2018-04-24T01:38:34.625Z,72.72
2018-04-24T01:40:27.236Z,78.25
2018-04-24T01:41:27.207Z,79.11
2018-04-24T01:43:19.917Z,77.11
2018-04-24T01:44:19.782Z,74.63
2018-04-24T01:46:12.535Z,71.96
2018-04-24T01:47:12.431Z,70.53
2018-04-24T01:49:05.206Z,68.50
2018-04-24T01:50:05.215Z,68.40
2018-04-24T01:51:57.841Z,71.26
2018-04-24T01:52:57.798Z,67.83
2018-04-24T01:54:51.002Z,67.64
2018-04-24T01:55:50.914Z,64.87
2018-04-24T01:57:43.651Z,63.35
2018-04-24T01:58:43.531Z,61.16
2018-04-24T02:00:36.283Z,58.69
2018-04-24T02:01:36.177Z,58.69
2018-04-24T02:03:28.919Z,56.40
2018-04-24T02:04:28.843Z,55.70
2018-04-24T02:06:21.587Z,53.44
2018-04-24T02:07:21.470Z,53.42
2018-04-24T02:09:14.248Z,52.75
2018-04-24T02:10:14.121Z,52.56
2018-04-24T02:12:06.975Z,49.04
2018-04-24T02:13:06.875Z,47.13
2018-04-24T02:14:59.643Z,42.85
2018-04-24T02:15:59.530Z,42.92
2018-04-24T02:17:52.290Z,40.92
2018-04-24T02:18:52.173Z,39.69
2018-04-24T02:20:45.016Z,39.97
2018-04-24T02:21:44.913Z,41.21
2018-04-24T02:23:37.754Z,35.21
2018-04-24T02:24:37.674Z,35.21
2018-04-24T02:26:30.431Z,33.88
2018-04-24T02:27:30.320Z,32.45
2018-04-24T02:29:23.146Z,31.12
2018-04-24T02:30:23.065Z,31.60
2018-04-24T02:32:15.810Z,32.35
2018-04-24T02:33:15.722Z,31.50
2018-04-24T02:35:08.449Z,30.55
2018-04-24T02:36:08.349Z,29.30
2018-04-24T02:38:01.110Z,26.92
2018-04-24T02:39:01.004Z,25.68
2018-04-24T02:40:53.758Z,23.59
2018-04-24T02:41:53.646Z,23.97
2018-04-24T02:43:46.408Z,22.83
2018-04-24T02:44:46.298Z,24.07
2018-04-24T02:46:39.054Z,23.68
2018-04-24T02:47:38.959Z,25.11
2018-04-24T02:49:32.319Z,22.26
2018-04-24T02:50:32.200Z,23.21
2018-04-24T02:52:24.943Z,21.78
2018-04-24T02:53:25.455Z,20.73
2018-04-24T02:55:17.623Z,21.21
2018-04-24T02:56:17.489Z,19.69
2018-04-24T02:58:10.298Z,16.83
2018-04-24T02:59:10.142Z,16.64
2018-04-24T03:01:02.991Z,17.12
2018-04-24T03:02:02.911Z,16.83
2018-04-24T03:03:55.666Z,13.89
2018-04-24T03:04:55.544Z,14.26
2018-04-24T03:06:48.279Z,15.50
2018-04-24T03:07:48.202Z,15.88
2018-04-24T03:09:41.053Z,15.50
2018-04-24T03:10:40.969Z,17.60
2018-04-24T03:12:34.223Z,19.40
2018-04-24T03:13:34.095Z,20.17
2018-04-24T03:15:26.858Z,18.07
2018-04-24T03:16:26.738Z,18.84
2018-04-24T03:18:19.611Z,19.21
2018-04-24T03:19:19.486Z,18.07
2018-04-24T03:21:12.251Z,19.60
2018-04-24T03:22:12.168Z,20.46
2018-04-24T03:24:04.892Z,20.75
2018-04-24T03:25:04.812Z,23.98
2018-04-24T03:26:57.551Z,25.51
2018-04-24T03:27:57.433Z,28.55
2018-04-24T03:29:50.278Z,31.80
2018-04-24T03:30:50.184Z,34.94
2018-04-24T03:32:42.935Z,37.90
2018-04-24T03:33:42.829Z,34.09
2018-04-24T03:35:35.575Z,35.13
2018-04-24T03:36:35.482Z,33.91
2018-04-24T03:38:28.251Z,39.06
2018-04-24T03:39:28.123Z,44.49
2018-04-24T03:41:20.971Z,47.82
2018-04-24T03:42:20.910Z,45.56
2018-04-24T03:44:13.650Z,52.71
2018-04-24T03:45:13.535Z,56.17
2018-04-24T03:47:06.327Z,59.12
2018-04-24T03:48:06.176Z,61.13
2018-04-24T03:49:59.427Z,63.70
2018-04-24T03:50:59.327Z,63.60
2018-04-24T03:52:52.081Z,62.88
2018-04-24T03:53:51.991Z,62.84
2018-04-24T03:55:44.825Z,65.61
2018-04-24T03:56:44.739Z,62.08
2018-04-24T03:58:37.575Z,61.13
2018-04-24T03:59:37.484Z,63.23
2018-04-24T04:01:30.325Z,64.09
2018-04-24T04:02:30.242Z,64.97
2018-04-24T04:04:23.089Z,73.18
2018-04-24T04:05:22.993Z,74.32
2018-04-24T04:07:15.725Z,72.42
2018-04-24T04:08:15.634Z,74.52
2018-04-24T04:10:08.898Z,76.33
2018-04-24T04:11:08.790Z,77.38
2018-04-24T04:13:01.525Z,77.76
2018-04-24T04:14:01.441Z,78.52
2018-04-24T04:15:54.331Z,82.06
2018-04-24T04:16:54.192Z,82.43
2018-04-24T04:18:47.029Z,85.49
2018-04-24T04:19:46.936Z,86.54
2018-04-24T04:21:39.680Z,85.01
2018-04-24T04:22:39.610Z,94.74
2018-04-24T04:24:32.442Z,91.41
2018-04-24T04:25:32.357Z,91.69
2018-04-24T04:27:25.130Z,89.40
2018-04-24T04:28:24.979Z,95.32
2018-04-24T04:30:17.841Z,90.07
2018-04-24T04:31:17.622Z,90.55
2018-04-24T04:33:10.467Z,91.02
2018-04-24T04:34:10.372Z,91.69
2018-04-24T04:36:03.141Z,96.08
2018-04-24T04:37:03.020Z,95.03
2018-04-24T04:38:55.783Z,93.41
2018-04-24T04:39:55.696Z,92.65
2018-04-24T04:41:48.440Z,90.26
2018-04-24T04:42:48.332Z,87.97
2018-04-24T04:44:41.078Z,88.83
2018-04-24T04:45:40.972Z,88.73
2018-04-24T04:47:33.735Z,91.50
2018-04-24T04:48:33.608Z,95.32
2018-04-24T04:50:26.446Z,95.79
2018-04-24T04:51:26.353Z,98.66
2018-04-24T04:53:19.137Z,95.79
2018-04-24T04:54:19.003Z,95.22
2018-04-24T04:56:11.795Z,95.89
2018-04-24T04:57:11.656Z,94.93
2018-04-24T04:59:04.454Z,93.70
2018-04-24T05:00:04.318Z,93.79
2018-04-24T05:01:57.185Z,94.36
2018-04-24T05:02:57.066Z,93.60
2018-04-24T05:04:49.825Z,93.88
2018-04-24T05:05:49.693Z,94.36
2018-04-24T05:07:42.554Z,93.60
2018-04-24T05:08:42.467Z,91.60
2018-04-24T05:10:35.220Z,88.64
2018-04-24T05:11:35.091Z,88.35
2018-04-24T05:13:27.941Z,86.44
2018-04-24T05:14:27.844Z,85.87
2018-04-24T05:16:20.673Z,87.40
2018-04-24T05:17:20.491Z,86.06
2018-04-24T05:19:13.778Z,83.01
2018-04-24T05:20:13.678Z,84.34
2018-04-24T05:22:06.426Z,85.21
2018-04-24T05:23:06.299Z,85.68
2018-04-24T05:24:59.053Z,85.30
2018-04-24T05:25:58.957Z,85.77
2018-04-24T05:27:51.817Z,85.72
2018-04-24T05:28:51.590Z,84.77
2018-04-24T05:30:44.441Z,85.72
2018-04-24T05:31:44.341Z,84.48
2018-04-24T05:33:37.126Z,86.30
2018-04-24T05:34:36.983Z,84.39
2018-04-24T05:36:29.781Z,85.44
2018-04-24T05:37:29.642Z,85.82
2018-04-24T05:39:22.471Z,84.58
2018-04-24T05:40:22.381Z,84.39
2018-04-24T05:42:15.130Z,84.77
2018-04-24T05:43:15.043Z,85.15
2018-04-24T05:45:07.820Z,83.72
2018-04-24T05:46:07.670Z,84.67
2018-04-24T05:48:00.447Z,84.48
2018-04-24T05:49:00.355Z,82.76
2018-04-24T05:50:53.126Z,83.43
2018-04-24T05:51:52.977Z,84.67
2018-04-24T05:53:45.722Z,85.44
2018-04-24T05:54:45.619Z,85.53
2018-04-24T05:56:38.501Z,85.34
2018-04-24T05:57:38.404Z,84.96
2018-04-24T05:59:31.114Z,83.05
2018-04-24T06:00:31.018Z,84.00
2018-04-24T06:02:23.791Z,86.58
2018-04-24T06:03:23.670Z,85.25
2018-04-24T06:05:16.530Z,85.15
2018-04-24T06:06:16.405Z,84.81
2018-04-24T06:08:09.178Z,87.01
2018-04-24T06:09:09.080Z,85.96
2018-04-24T06:11:01.891Z,86.43
2018-04-24T06:12:01.808Z,87.58
2018-04-24T06:13:54.573Z,91.21
2018-04-24T06:14:54.473Z,88.44
2018-04-24T06:16:47.192Z,89.20
2018-04-24T06:17:47.119Z,90.45
2018-04-24T06:19:39.855Z,92.64
2018-04-24T06:20:39.746Z,91.78
2018-04-24T06:22:32.540Z,94.55
2018-04-24T06:23:32.390Z,94.17
2018-04-24T06:25:25.170Z,92.45
2018-04-24T06:26:25.048Z,95.12
2018-04-24T06:28:17.819Z,93.55
2018-04-24T06:29:17.692Z,99.43
2018-04-24T06:31:10.951Z,96.27
2018-04-24T06:32:10.852Z,99.48
2018-04-24T06:34:03.714Z,99.85
2018-04-24T06:35:03.598Z,99.99
2018-04-24T06:36:56.362Z,99.99
2018-04-24T06:37:56.267Z,99.99
2018-04-24T06:39:49.117Z,99.99
2018-04-24T06:40:48.996Z,99.99
2018-04-24T06:42:41.745Z,99.99
2018-04-24T06:43:41.639Z,99.99
2018-04-24T06:45:34.403Z,99.99
2018-04-24T06:46:34.313Z,99.99
2018-04-24T06:48:27.691Z,99.99
2018-04-24T06:49:27.056Z,99.04
2018-04-24T06:51:19.797Z,98.47
2018-04-24T06:52:19.682Z,98.57
2018-04-24T06:54:12.533Z,99.23
2018-04-24T06:55:12.430Z,99.48
2018-04-24T06:57:05.707Z,99.90
2018-04-24T06:58:05.600Z,98.85
2018-04-24T06:59:58.375Z,99.48
2018-04-24T07:00:58.239Z,99.99
2018-04-24T07:02:52.544Z,99.99
2018-04-24T07:03:52.432Z,99.99
2018-04-24T07:05:45.210Z,99.99
2018-04-24T07:06:45.071Z,99.99
2018-04-24T07:08:37.925Z,99.99
2018-04-24T07:09:37.822Z,99.99
2018-04-24T07:11:30.626Z,99.99
2018-04-24T07:12:30.522Z,99.99
2018-04-24T07:14:23.224Z,99.99
2018-04-24T07:15:23.121Z,99.99
2018-04-24T07:17:15.882Z,99.99
2018-04-24T07:18:15.769Z,99.99
2018-04-24T07:20:08.624Z,99.99
2018-04-24T07:21:08.513Z,99.99
2018-04-24T07:23:01.380Z,99.99
2018-04-24T07:24:01.328Z,99.99
2018-04-24T07:25:54.128Z,99.99
2018-04-24T07:26:54.017Z,99.99
2018-04-24T07:28:46.767Z,99.99
2018-04-24T07:29:46.671Z,99.99
2018-04-24T07:31:39.536Z,99.99
2018-04-24T07:32:39.447Z,99.99
2018-04-24T07:34:32.168Z,99.99
2018-04-24T07:35:32.066Z,99.99
2018-04-24T07:37:24.930Z,94.65
2018-04-24T07:38:24.804Z,87.48
2018-04-24T07:40:17.550Z,84.99
2018-04-24T07:41:17.467Z,91.49
2018-04-24T07:43:10.364Z,86.23
2018-04-24T07:44:10.232Z,85.28
2018-04-24T07:46:03.073Z,88.62
2018-04-24T07:47:02.971Z,90.25
2018-04-24T07:48:55.715Z,81.65
2018-04-24T07:49:55.596Z,83.79
2018-04-24T07:51:48.437Z,85.85
2018-04-24T07:52:48.346Z,89.48
2018-04-24T07:54:41.120Z,90.25
2018-04-24T07:55:41.001Z,94.93
2018-04-24T07:57:33.857Z,89.01
2018-04-24T07:58:33.639Z,92.25
2018-04-24T08:00:26.506Z,93.40
2018-04-24T08:01:26.409Z,90.82
2018-04-24T08:03:19.257Z,93.69
2018-04-24T08:04:19.060Z,95.03
2018-04-24T08:06:11.896Z,96.18
2018-04-24T08:07:11.785Z,94.26
2018-04-24T08:09:04.631Z,94.65
2018-04-24T08:10:04.539Z,99.00
2018-04-24T08:11:57.304Z,93.84
2018-04-24T08:12:57.196Z,89.53
2018-04-24T08:14:50.084Z,86.94
2018-04-24T08:15:49.949Z,88.38
2018-04-24T08:17:43.194Z,91.73
2018-04-24T08:18:43.107Z,92.88
2018-04-24T08:20:35.904Z,91.63
2018-04-24T08:21:35.759Z,91.53
2018-04-24T08:23:28.584Z,91.35
2018-04-24T08:24:28.494Z,87.71
2018-04-24T08:26:21.760Z,91.44
2018-04-24T08:27:21.652Z,90.39
2018-04-24T08:29:14.497Z,92.78
2018-04-24T08:30:14.394Z,92.40
2018-04-24T08:32:07.249Z,92.59
2018-04-24T08:33:07.149Z,92.30
2018-04-24T08:34:59.989Z,91.63
2018-04-24T08:35:59.904Z,92.49
2018-04-24T08:37:52.673Z,92.69
2018-04-24T08:38:52.561Z,94.89
2018-04-24T08:40:45.422Z,92.49
2018-04-24T08:41:45.298Z,93.55
2018-04-24T08:43:38.054Z,92.54
2018-04-24T08:44:37.958Z,91.01
2018-04-24T08:46:30.809Z,94.93
2018-04-24T08:47:30.701Z,92.16
2018-04-24T08:49:23.529Z,91.77
2018-04-24T08:50:23.449Z,93.26
2018-04-24T08:52:16.291Z,94.31
2018-04-24T08:53:16.200Z,93.59
2018-04-24T08:55:09.037Z,97.90
2018-04-24T08:56:08.943Z,99.33
2018-04-24T08:58:01.796Z,98.28
2018-04-24T08:59:01.711Z,99.57
2018-04-24T09:00:54.946Z,99.86
2018-04-24T09:01:54.873Z,99.48
2018-04-24T09:03:47.728Z,99.19
2018-04-24T09:04:47.604Z,99.00
2018-04-24T09:06:40.441Z,99.72
2018-04-24T09:07:40.351Z,97.66
2018-04-24T09:09:33.106Z,97.85
2018-04-24T09:10:33.004Z,99.57
2018-04-24T09:12:25.851Z,99.99
2018-04-24T09:13:25.751Z,99.62
2018-04-24T09:15:18.500Z,97.08
2018-04-24T09:16:18.421Z,98.47
2018-04-24T09:18:11.255Z,97.66
2018-04-24T09:19:11.148Z,98.76
2018-04-24T09:21:03.897Z,98.19
2018-04-24T09:22:03.794Z,99.99
2018-04-24T09:23:56.656Z,99.99
2018-04-24T09:24:56.536Z,99.99
2018-04-24T09:26:49.368Z,99.99
2018-04-24T09:27:49.198Z,99.99
2018-04-24T09:29:42.053Z,99.99
2018-04-24T09:30:41.940Z,99.99
2018-04-24T09:34:20.097Z,99.99
2018-04-24T09:35:07.372Z,99.91
2018-04-24T09:37:00.202Z,99.99
2018-04-24T09:38:00.105Z,99.99
2018-04-24T09:39:52.866Z,99.99
2018-04-24T09:40:52.760Z,99.99
2018-04-24T09:42:45.628Z,99.99
2018-04-24T09:43:45.539Z,99.99
2018-04-24T09:45:38.399Z,99.99
2018-04-24T09:46:38.274Z,99.99
2018-04-24T09:48:30.994Z,99.99
2018-04-24T09:49:30.918Z,99.99
2018-04-24T09:51:23.815Z,99.99
2018-04-24T09:52:23.681Z,99.99
2018-04-24T09:54:16.501Z,99.99
2018-04-24T09:55:16.404Z,99.99
2018-04-24T09:57:09.165Z,99.99
2018-04-24T09:58:09.045Z,99.99
2018-04-24T10:00:01.914Z,99.99
2018-04-24T10:01:01.797Z,99.99
2018-04-24T10:02:54.593Z,99.99
2018-04-24T10:03:54.479Z,99.99
2018-04-24T10:05:47.327Z,99.99
2018-04-24T10:06:47.198Z,99.99
2018-04-24T10:08:40.050Z,98.28
2018-04-24T10:09:39.935Z,99.62
2018-04-24T10:11:32.800Z,97.80
2018-04-24T10:12:32.699Z,95.89
2018-04-24T10:14:25.959Z,95.03
2018-04-24T10:15:25.860Z,95.41
2018-04-24T10:17:18.704Z,91.20
2018-04-24T10:18:18.605Z,92.25
2018-04-24T10:20:11.878Z,93.50
2018-04-24T10:21:11.757Z,95.07
2018-04-24T10:23:04.628Z,91.83
2018-04-24T10:24:04.524Z,91.06
2018-04-24T10:25:57.249Z,90.10
2018-04-24T10:26:57.173Z,82.83
2018-04-24T10:28:50.023Z,86.76
2018-04-24T10:29:49.901Z,85.80
2018-04-24T10:31:42.649Z,87.81
2018-04-24T10:32:42.552Z,86.94
2018-04-24T10:34:35.501Z,85.13
2018-04-24T10:35:35.400Z,83.12
2018-04-24T10:37:28.215Z,86.57
2018-04-24T10:38:28.052Z,79.20
2018-04-24T10:40:20.965Z,83.79
2018-04-24T10:41:20.801Z,85.71
2018-04-24T10:43:13.669Z,81.78
2018-04-24T10:44:13.544Z,82.17
2018-04-24T10:46:06.417Z,78.38
2018-04-24T10:47:06.305Z,86.61
2018-04-24T10:48:59.041Z,84.79
2018-04-24T10:49:58.950Z,89.76
2018-04-24T10:51:51.883Z,90.34
2018-04-24T10:52:51.693Z,90.15
2018-04-24T10:54:44.546Z,93.88
2018-04-24T10:55:44.355Z,93.50
2018-04-24T10:57:37.221Z,89.76
2018-04-24T10:58:37.091Z,89.86
2018-04-24T11:00:29.840Z,94.36
2018-04-24T11:01:29.743Z,95.03
2018-04-24T11:03:22.634Z,95.41
2018-04-24T11:04:22.518Z,95.03
2018-04-24T11:06:15.332Z,95.61
2018-04-24T11:07:15.268Z,94.17
2018-04-24T11:09:08.596Z,94.45
2018-04-24T11:10:08.403Z,96.70
2018-04-24T11:12:01.175Z,95.27
2018-04-24T11:13:01.052Z,98.33
2018-04-24T11:14:53.893Z,94.60
2018-04-24T11:15:53.819Z,92.87
2018-04-24T11:17:46.691Z,94.60
2018-04-24T11:18:46.569Z,93.30
2018-04-24T11:20:39.421Z,90.24
2018-04-24T11:21:39.318Z,90.91
2018-04-24T11:23:32.164Z,92.16
2018-04-24T11:24:32.045Z,91.68
2018-04-24T11:26:25.305Z,91.25
2018-04-24T11:27:25.219Z,92.01
2018-04-24T11:29:18.097Z,88.04
2018-04-24T11:30:17.959Z,86.32
2018-04-24T11:32:10.803Z,84.22
2018-04-24T11:33:10.704Z,85.27
2018-04-24T11:35:03.570Z,79.24
2018-04-24T11:36:03.525Z,81.05
2018-04-24T11:37:56.315Z,81.73
2018-04-24T11:38:56.244Z,79.91
2018-04-24T11:40:49.090Z,77.51
2018-04-24T11:41:48.977Z,74.97
2018-04-24T11:43:42.230Z,87.70
2018-04-24T11:44:42.131Z,83.01
2018-04-24T11:46:34.977Z,84.64
2018-04-24T11:47:34.863Z,88.28
2018-04-24T11:49:27.716Z,89.52
2018-04-24T11:50:27.634Z,88.42
2018-04-24T11:52:20.483Z,89.95
2018-04-24T11:53:20.357Z,88.03
2018-04-24T11:55:13.234Z,90.91
2018-04-24T11:56:13.113Z,87.99
2018-04-24T11:58:05.975Z,89.52
2018-04-24T11:59:05.887Z,91.96
2018-04-24T12:00:58.747Z,92.82
2018-04-24T12:01:58.617Z,94.55
2018-04-24T12:03:51.483Z,95.22
2018-04-24T12:04:51.360Z,96.47
2018-04-24T12:06:44.234Z,96.84
2018-04-24T12:07:44.107Z,99.05
2018-04-24T12:09:36.980Z,94.74
2018-04-24T12:10:36.876Z,96.27
2018-04-24T12:12:29.723Z,98.10
2018-04-24T12:13:29.615Z,97.23
2018-04-24T12:15:22.864Z,97.90
2018-04-24T12:16:22.784Z,98.28
2018-04-24T12:18:15.641Z,98.38
2018-04-24T12:19:15.525Z,98.76
2018-04-24T12:21:08.274Z,97.33
2018-04-24T12:22:08.177Z,96.99
2018-04-24T12:24:00.933Z,93.98
2018-04-24T12:25:00.819Z,97.04
2018-04-24T12:26:54.088Z,96.94
2018-04-24T12:27:53.993Z,99.99
2018-04-24T12:29:46.840Z,99.63
2018-04-24T12:30:46.714Z,99.99
2018-04-24T12:32:39.587Z,99.77
2018-04-24T12:33:39.489Z,98.05
2018-04-24T12:35:32.234Z,98.19
2018-04-24T12:36:32.125Z,97.80
2018-04-24T12:38:24.992Z,98.57
2018-04-24T12:39:24.884Z,98.96
2018-04-24T12:41:17.629Z,99.99
2018-04-24T12:42:17.532Z,97.80
2018-04-24T12:44:10.408Z,99.63
2018-04-24T12:45:10.320Z,98.57
2018-04-24T12:47:03.130Z,98.38
2018-04-24T12:48:03.037Z,99.53
2018-04-24T12:49:55.880Z,99.48
2018-04-24T12:50:55.764Z,99.99
2018-04-24T12:52:49.056Z,99.99
2018-04-24T12:53:48.927Z,99.99
2018-04-24T12:55:41.792Z,99.05
2018-04-24T12:56:41.687Z,99.82
2018-04-24T12:58:34.432Z,98.38
2018-04-24T12:59:34.333Z,98.19
2018-04-24T13:01:27.196Z,99.24
2018-04-24T13:02:27.102Z,99.53
2018-04-24T13:04:19.922Z,99.99
2018-04-24T13:05:19.814Z,99.99
2018-04-24T13:07:12.699Z,99.99
2018-04-24T13:08:12.565Z,99.82
2018-04-24T13:10:05.545Z,99.63
2018-04-24T13:11:05.435Z,99.99
2018-04-24T13:12:58.265Z,99.99
2018-04-24T13:13:58.167Z,99.99
2018-04-24T13:15:51.069Z,99.99
2018-04-24T13:16:50.818Z,99.43
2018-04-24T13:18:43.668Z,99.99
2018-04-24T13:19:43.566Z,99.19
2018-04-24T13:21:36.317Z,99.99
2018-04-24T13:22:36.242Z,99.77
2018-04-24T13:24:29.478Z,99.99
2018-04-24T13:25:29.386Z,99.99
2018-04-24T13:27:22.253Z,99.72
2018-04-24T13:28:22.144Z,99.53
2018-04-24T13:30:14.982Z,98.76
2018-04-24T13:31:14.877Z,97.80
2018-04-24T13:33:07.631Z,96.08
2018-04-24T13:34:07.567Z,97.14
2018-04-24T13:36:00.418Z,98.28
2018-04-24T13:37:00.304Z,98.00
2018-04-24T13:38:53.621Z,96.27
2018-04-24T13:39:53.022Z,95.79
2018-04-24T13:41:45.894Z,95.60
2018-04-24T13:42:45.775Z,97.71
2018-04-24T13:44:38.633Z,97.61
2018-04-24T13:45:38.534Z,99.63
2018-04-24T13:47:31.408Z,97.61
2018-04-24T13:48:31.277Z,97.14
2018-04-24T13:50:24.153Z,97.04
2018-04-24T13:51:24.024Z,95.79
2018-04-24T13:53:16.778Z,96.08
2018-04-24T13:54:16.680Z,96.18
2018-04-24T13:56:09.521Z,97.04
2018-04-24T13:57:09.410Z,96.18
2018-04-24T13:59:02.273Z,92.82
2018-04-24T14:00:02.173Z,92.97
2018-04-24T14:01:55.006Z,92.30
2018-04-24T14:02:54.909Z,91.53
2018-04-24T14:04:47.773Z,91.00
2018-04-24T14:05:47.669Z,90.77
2018-04-24T14:07:40.398Z,91.72
2018-04-24T14:08:40.318Z,91.53
2018-04-24T14:10:33.075Z,87.70
2018-04-24T14:11:32.965Z,87.84
2018-04-24T14:13:25.813Z,83.68
2018-04-24T14:14:25.707Z,81.29
2018-04-24T14:16:18.469Z,83.68
2018-04-24T14:17:18.364Z,83.20
2018-04-24T14:19:11.606Z,83.15
2018-04-24T14:20:11.515Z,85.83
2018-04-24T14:22:04.361Z,89.37
2018-04-24T14:23:04.334Z,84.68
2018-04-24T14:24:57.000Z,88.90
2018-04-24T14:25:56.910Z,89.95
2018-04-24T14:27:49.756Z,88.94
2018-04-24T14:28:49.667Z,92.54
2018-04-24T14:30:42.412Z,96.47
2018-04-24T14:31:42.321Z,99.05
2018-04-24T14:33:35.153Z,99.58
2018-04-24T14:34:35.048Z,99.29
2018-04-24T14:36:27.944Z,98.86
2018-04-24T14:37:27.803Z,99.68
2018-04-24T14:39:20.664Z,99.20
2018-04-24T14:40:20.557Z,97.95
2018-04-24T14:42:13.409Z,98.05
2018-04-24T14:43:13.315Z,97.86
2018-04-24T14:45:06.172Z,97.38
2018-04-24T14:46:06.055Z,96.56
2018-04-24T14:47:58.918Z,96.66
2018-04-24T14:48:58.816Z,95.70
2018-04-24T14:50:51.646Z,97.23
2018-04-24T14:51:51.550Z,97.81
2018-04-24T14:53:44.409Z,95.70
2018-04-24T14:54:44.306Z,94.45
2018-04-24T14:56:37.181Z,95.21
2018-04-24T14:57:37.052Z,97.56
2018-04-24T14:59:29.966Z,97.56
2018-04-24T15:00:29.804Z,94.64
2018-04-24T15:02:22.650Z,94.50
2018-04-24T15:03:22.554Z,95.36
2018-04-24T15:05:15.417Z,94.50
2018-04-24T15:06:15.335Z,93.63
2018-04-24T15:08:08.152Z,93.44
2018-04-24T15:09:08.058Z,96.13
2018-04-24T15:11:00.904Z,94.21
2018-04-24T15:12:00.797Z,94.74
2018-04-24T15:13:53.653Z,91.82
2018-04-24T15:14:53.686Z,92.87
2018-04-24T15:16:46.403Z,92.30
2018-04-24T15:17:46.312Z,96.75
2018-04-24T15:19:39.565Z,96.32
2018-04-24T15:20:39.060Z,93.63
2018-04-24T15:22:31.927Z,95.36
2018-04-24T15:23:31.809Z,95.46
2018-04-24T15:25:24.685Z,96.61
2018-04-24T15:26:24.541Z,97.28
2018-04-24T15:28:17.391Z,96.70
2018-04-24T15:29:17.303Z,98.28
2018-04-24T15:31:10.098Z,99.15
2018-04-24T15:32:09.945Z,97.42
2018-04-24T15:34:02.814Z,99.63
2018-04-24T15:35:02.723Z,99.99
2018-04-24T15:36:55.533Z,99.99
2018-04-24T15:37:55.443Z,99.99
2018-04-24T15:39:48.330Z,99.99
2018-04-24T15:40:48.188Z,99.99
2018-04-24T15:42:40.935Z,99.99
2018-04-24T15:43:40.841Z,99.99
2018-04-24T15:45:33.687Z,99.99
2018-04-24T15:46:33.583Z,99.99
2018-04-24T15:48:26.429Z,99.99
2018-04-24T15:49:26.435Z,99.99
2018-04-24T15:51:19.273Z,99.99
2018-04-24T15:52:19.093Z,99.99
2018-04-24T15:54:11.934Z,99.99
2018-04-24T15:55:11.845Z,99.99
2018-04-24T15:57:04.724Z,99.99
2018-04-24T15:58:04.652Z,99.99
2018-04-24T15:59:57.433Z,99.99
2018-04-24T16:00:57.342Z,99.99
2018-04-24T16:02:50.202Z,99.99
2018-04-24T16:03:50.085Z,99.99
2018-04-24T16:05:42.942Z,99.99
2018-04-24T16:06:42.854Z,99.99
2018-04-24T16:08:35.692Z,99.99
2018-04-24T16:09:35.590Z,99.99
2018-04-24T16:11:28.446Z,99.99
2018-04-24T16:12:28.331Z,99.99
2018-04-24T16:14:21.185Z,99.99
2018-04-24T16:15:21.091Z,99.99
2018-04-24T16:17:13.945Z,99.99
2018-04-24T16:18:13.844Z,99.99
2018-04-24T16:20:06.688Z,99.99
2018-04-24T16:21:06.612Z,99.99
2018-04-24T16:22:59.459Z,99.99
2018-04-24T16:23:59.334Z,99.99
2018-04-24T16:25:52.291Z,99.99
2018-04-24T16:26:52.197Z,99.99
2018-04-24T16:28:45.037Z,99.82
2018-04-24T16:29:45.036Z,99.99
2018-04-24T16:31:37.785Z,99.99
2018-04-24T16:32:37.692Z,99.99
2018-04-24T16:34:30.572Z,99.91
2018-04-24T16:35:30.457Z,99.99
2018-04-24T16:37:23.314Z,99.43
2018-04-24T16:38:23.191Z,97.61
2018-04-24T16:40:16.043Z,97.95
2018-04-24T16:41:15.935Z,97.75
2018-04-24T16:43:09.212Z,96.89
2018-04-24T16:44:09.229Z,94.02
2018-04-24T16:46:01.946Z,93.16
2018-04-24T16:47:01.846Z,93.07
2018-04-24T16:48:55.442Z,92.63
2018-04-24T16:49:55.255Z,92.06
2018-04-24T16:51:47.469Z,90.82
2018-04-24T16:52:47.358Z,89.86
2018-04-24T16:54:40.231Z,89.29
2018-04-24T16:55:40.099Z,89.95
2018-04-24T16:57:32.965Z,88.33
2018-04-24T16:58:32.858Z,89.38
2018-04-24T17:00:25.636Z,89.38
2018-04-24T17:01:25.643Z,90.63
2018-04-24T17:03:18.367Z,89.09
2018-04-24T17:04:18.255Z,89.86
2018-04-24T17:06:11.384Z,89.48
2018-04-24T17:07:11.202Z,90.05
2018-04-24T17:09:03.938Z,91.11
2018-04-24T17:10:03.874Z,90.34
2018-04-24T17:11:57.112Z,90.34
2018-04-24T17:12:57.001Z,93.79
2018-04-24T17:14:49.773Z,92.16
2018-04-24T17:15:49.646Z,90.24
2018-04-24T17:17:42.505Z,92.16
2018-04-24T17:18:42.385Z,93.21
2018-04-24T17:20:35.159Z,91.87
2018-04-24T17:21:35.055Z,91.97
2018-04-24T17:23:27.816Z,91.39
2018-04-24T17:24:27.716Z,89.48
2018-04-24T17:26:20.454Z,89.95
2018-04-24T17:27:20.329Z,90.53
2018-04-24T17:29:13.200Z,91.39
2018-04-24T17:30:13.131Z,91.39
2018-04-24T17:32:05.972Z,91.39
2018-04-24T17:33:05.857Z,90.82
2018-04-24T17:34:58.601Z,92.35
2018-04-24T17:35:58.486Z,92.83
2018-04-24T17:37:51.279Z,90.53
2018-04-24T17:38:51.134Z,92.06
2018-04-24T17:40:43.987Z,90.53
2018-04-24T17:41:43.892Z,89.86
2018-04-24T17:43:36.652Z,89.76
2018-04-24T17:44:36.551Z,89.15
2018-04-24T17:46:29.402Z,87.62
2018-04-24T17:47:29.284Z,87.90
2018-04-24T17:49:22.036Z,87.04
2018-04-24T17:50:21.953Z,83.79
2018-04-24T17:52:14.764Z,84.55
2018-04-24T17:53:14.673Z,84.17
2018-04-24T17:55:07.443Z,84.36
2018-04-24T17:56:07.364Z,83.89
2018-04-24T17:58:00.224Z,84.94
2018-04-24T17:59:00.069Z,83.79
2018-04-24T18:00:52.847Z,83.50
2018-04-24T18:01:52.749Z,83.60
2018-04-24T18:03:45.587Z,83.50
2018-04-24T18:04:45.597Z,79.00
2018-04-24T18:06:38.232Z,80.11
2018-04-24T18:07:38.145Z,80.40
2018-04-24T18:09:30.889Z,79.54
2018-04-24T18:10:30.755Z,80.11
2018-04-24T18:12:23.561Z,78.49
2018-04-24T18:13:23.416Z,79.25
2018-04-24T18:15:16.304Z,74.09
2018-04-24T18:16:16.156Z,76.86
2018-04-24T18:18:09.004Z,74.95
2018-04-24T18:19:08.875Z,76.77
2018-04-24T18:21:01.684Z,76.96
2018-04-24T18:22:01.552Z,76.77
2018-04-24T18:23:54.414Z,75.52
2018-04-24T18:24:54.307Z,74.57
2018-04-24T18:26:47.571Z,73.23
2018-04-24T18:27:47.532Z,73.43
2018-04-24T18:29:40.715Z,69.02
2018-04-24T18:30:40.626Z,66.63
2018-04-24T18:32:33.380Z,66.03
2018-04-24T18:33:33.290Z,66.41